sensor_id;sensor_type;location;lat;lon;timestamp;pressure;altitude;pressure_sealevel;temperature;humidity
70254;BME280;57649;42.968;1.608;2023-04-25T00:01:58;97160.78;;;12.84;100.00
70254;BME280;57649;42.968;1.608;2023-04-25T00:04:25;97166.53;;;12.81;100.00
70254;BME280;57649;42.968;1.608;2023-04-25T00:06:50;97158.81;;;12.78;100.00
70254;BME280;57649;42.968;1.608;2023-04-25T00:09:17;97165.41;;;12.76;100.00
70254;BME280;57649;42.968;1.608;2023-04-25T00:11:45;97170.88;;;12.82;100.00
70254;BME280;57649;42.968;1.608;2023-04-25T00:14:13;97167.56;;;12.80;100.00
70254;BME280;57649;42.968;1.608;2023-04-25T00:16:39;97162.44;;;12.85;100.00
70254;BME280;57649;42.968;1.608;2023-04-25T00:19:06;97156.69;;;12.88;100.00
70254;BME280;57649;42.968;1.608;2023-04-25T00:21:32;97149.00;;;12.85;100.00
70254;BME280;57649;42.968;1.608;2023-04-25T00:23:58;97152.53;;;12.86;100.00
70254;BME280;57649;42.968;1.608;2023-04-25T00:26:24;97148.53;;;12.82;100.00
70254;BME280;57649;42.968;1.608;2023-04-25T00:28:50;97146.72;;;12.82;100.00
70254;BME280;57649;42.968;1.608;2023-04-25T00:31:15;97140.94;;;12.85;100.00
70254;BME280;57649;42.968;1.608;2023-04-25T00:33:40;97137.88;;;12.88;100.00
70254;BME280;57649;42.968;1.608;2023-04-25T00:36:06;97136.88;;;12.89;100.00
70254;BME280;57649;42.968;1.608;2023-04-25T00:38:32;97132.59;;;12.95;100.00
70254;BME280;57649;42.968;1.608;2023-04-25T00:40:57;97140.44;;;12.97;100.00
70254;BME280;57649;42.968;1.608;2023-04-25T00:43:26;97136.88;;;12.89;100.00
70254;BME280;57649;42.968;1.608;2023-04-25T00:45:52;97130.91;;;12.94;100.00
70254;BME280;57649;42.968;1.608;2023-04-25T00:48:17;97128.41;;;12.93;100.00
70254;BME280;57649;42.968;1.608;2023-04-25T00:50:51;97125.19;;;12.97;100.00
70254;BME280;57649;42.968;1.608;2023-04-25T00:53:17;97132.13;;;12.92;100.00
70254;BME280;57649;42.968;1.608;2023-04-25T00:55:42;97119.16;;;12.95;100.00
70254;BME280;57649;42.968;1.608;2023-04-25T00:58:07;97129.13;;;13.01;100.00
70254;BME280;57649;42.968;1.608;2023-04-25T01:00:33;97123.44;;;12.89;100.00
70254;BME280;57649;42.968;1.608;2023-04-25T01:02:59;97127.69;;;12.99;100.00
70254;BME280;57649;42.968;1.608;2023-04-25T01:05:25;97119.41;;;13.00;100.00
70254;BME280;57649;42.968;1.608;2023-04-25T01:07:50;97125.22;;;13.04;100.00
70254;BME280;57649;42.968;1.608;2023-04-25T01:10:16;97128.03;;;12.96;100.00
70254;BME280;57649;42.968;1.608;2023-04-25T01:12:41;97119.41;;;13.00;100.00
70254;BME280;57649;42.968;1.608;2023-04-25T01:15:07;97118.84;;;13.05;100.00
70254;BME280;57649;42.968;1.608;2023-04-25T01:17:34;97115.78;;;13.08;100.00
70254;BME280;57649;42.968;1.608;2023-04-25T01:20:03;97124.53;;;12.95;100.00
70254;BME280;57649;42.968;1.608;2023-04-25T01:22:29;97107.19;;;12.98;100.00
70254;BME280;57649;42.968;1.608;2023-04-25T01:24:54;97121.91;;;13.02;100.00
70254;BME280;57649;42.968;1.608;2023-04-25T01:27:21;97127.00;;;12.97;100.00
70254;BME280;57649;42.968;1.608;2023-04-25T01:29:47;97114.94;;;12.86;100.00
70254;BME280;57649;42.968;1.608;2023-04-25T01:32:15;97110.00;;;12.89;100.00
70254;BME280;57649;42.968;1.608;2023-04-25T01:34:41;97108.06;;;12.83;100.00
70254;BME280;57649;42.968;1.608;2023-04-25T01:37:06;97122.53;;;12.82;100.00
70254;BME280;57649;42.968;1.608;2023-04-25T01:39:32;97116.03;;;12.92;100.00
70254;BME280;57649;42.968;1.608;2023-04-25T01:41:59;97119.72;;;12.90;100.00
70254;BME280;57649;42.968;1.608;2023-04-25T01:44:24;97107.69;;;12.86;100.00
70254;BME280;57649;42.968;1.608;2023-04-25T01:46:50;97111.66;;;12.90;100.00
70254;BME280;57649;42.968;1.608;2023-04-25T01:49:16;97105.28;;;12.92;100.00
70254;BME280;57649;42.968;1.608;2023-04-25T01:51:41;97102.41;;;12.93;100.00
70254;BME280;57649;42.968;1.608;2023-04-25T01:54:08;97092.66;;;12.92;100.00
70254;BME280;57649;42.968;1.608;2023-04-25T01:56:37;97105.00;;;12.86;100.00
70254;BME280;57649;42.968;1.608;2023-04-25T01:59:04;97111.09;;;12.95;100.00
70254;BME280;57649;42.968;1.608;2023-04-25T02:01:29;97104.31;;;12.99;100.00
70254;BME280;57649;42.968;1.608;2023-04-25T02:03:55;97102.44;;;13.00;100.00
70254;BME280;57649;42.968;1.608;2023-04-25T02:06:20;97102.44;;;13.00;100.00
70254;BME280;57649;42.968;1.608;2023-04-25T02:08:46;97108.09;;;13.05;100.00
70254;BME280;57649;42.968;1.608;2023-04-25T02:11:11;97113.00;;;13.01;100.00
70254;BME280;57649;42.968;1.608;2023-04-25T02:13:37;97121.84;;;12.95;100.00
70254;BME280;57649;42.968;1.608;2023-04-25T02:16:02;97115.16;;;12.91;100.00
70254;BME280;57649;42.968;1.608;2023-04-25T02:18:27;97114.25;;;12.99;100.00
70254;BME280;57649;42.968;1.608;2023-04-25T02:20:53;97113.84;;;13.02;100.00
70254;BME280;57649;42.968;1.608;2023-04-25T02:23:19;97117.13;;;12.97;100.00
70254;BME280;57649;42.968;1.608;2023-04-25T02:25:44;97109.09;;;12.82;100.00
70254;BME280;57649;42.968;1.608;2023-04-25T02:28:10;97108.34;;;12.88;100.00
70254;BME280;57649;42.968;1.608;2023-04-25T02:30:35;97098.41;;;12.89;100.00
70254;BME280;57649;42.968;1.608;2023-04-25T02:33:01;97102.31;;;12.86;100.00
70254;BME280;57649;42.968;1.608;2023-04-25T02:35:26;97102.06;;;12.81;100.00
70254;BME280;57649;42.968;1.608;2023-04-25T02:37:52;97106.28;;;12.90;100.00
70254;BME280;57649;42.968;1.608;2023-04-25T02:40:17;97092.66;;;12.92;100.00
70254;BME280;57649;42.968;1.608;2023-04-25T02:42:43;97089.44;;;12.82;100.00
70254;BME280;57649;42.968;1.608;2023-04-25T02:45:11;97099.91;;;12.92;100.00
70254;BME280;57649;42.968;1.608;2023-04-25T02:47:36;97090.47;;;12.81;100.00
70254;BME280;57649;42.968;1.608;2023-04-25T02:50:02;97086.66;;;12.90;100.00
70254;BME280;57649;42.968;1.608;2023-04-25T02:52:27;97077.78;;;12.89;100.00
70254;BME280;57649;42.968;1.608;2023-04-25T02:54:53;97078.53;;;13.05;100.00
70254;BME280;57649;42.968;1.608;2023-04-25T02:57:18;97080.59;;;13.03;100.00
70254;BME280;57649;42.968;1.608;2023-04-25T02:59:43;97074.16;;;13.04;100.00
70254;BME280;57649;42.968;1.608;2023-04-25T03:02:09;97077.44;;;12.99;100.00
70254;BME280;57649;42.968;1.608;2023-04-25T03:04:35;97071.47;;;13.04;100.00
70254;BME280;57649;42.968;1.608;2023-04-25T03:07:00;97070.97;;;12.94;100.00
70254;BME280;57649;42.968;1.608;2023-04-25T03:09:26;97068.84;;;12.89;100.00
70254;BME280;57649;42.968;1.608;2023-04-25T03:11:51;97067.25;;;12.95;100.00
70254;BME280;57649;42.968;1.608;2023-04-25T03:14:17;97064.84;;;13.00;100.00
70254;BME280;57649;42.968;1.608;2023-04-25T03:16:42;97062.28;;;12.92;100.00
70254;BME280;57649;42.968;1.608;2023-04-25T03:19:07;97070.53;;;12.90;100.00
70254;BME280;57649;42.968;1.608;2023-04-25T03:21:34;97069.94;;;12.95;100.00
70254;BME280;57649;42.968;1.608;2023-04-25T03:24:01;97071.72;;;12.87;100.00
70254;BME280;57649;42.968;1.608;2023-04-25T03:26:27;97060.13;;;12.80;100.00
70254;BME280;57649;42.968;1.608;2023-04-25T03:28:52;97058.81;;;12.76;100.00
70254;BME280;57649;42.968;1.608;2023-04-25T03:31:18;97060.13;;;12.80;100.00
70254;BME280;57649;42.968;1.608;2023-04-25T03:33:43;97043.09;;;12.73;100.00
70254;BME280;57649;42.968;1.608;2023-04-25T03:36:11;97052.34;;;12.70;100.00
70254;BME280;57649;42.968;1.608;2023-04-25T03:38:37;97051.53;;;12.70;100.00
70254;BME280;57649;42.968;1.608;2023-04-25T03:41:02;97039.88;;;12.63;100.00
70254;BME280;57649;42.968;1.608;2023-04-25T03:43:27;97055.06;;;12.56;100.00
70254;BME280;57649;42.968;1.608;2023-04-25T03:45:53;97052.38;;;12.56;100.00
70254;BME280;57649;42.968;1.608;2023-04-25T03:48:18;97051.75;;;12.54;100.00
70254;BME280;57649;42.968;1.608;2023-04-25T03:50:46;97040.56;;;12.50;100.00
70254;BME280;57649;42.968;1.608;2023-04-25T03:53:12;97044.41;;;12.62;100.00
70254;BME280;57649;42.968;1.608;2023-04-25T03:55:37;97039.50;;;12.66;100.00
70254;BME280;57649;42.968;1.608;2023-04-25T03:58:05;97035.91;;;12.59;100.00
70254;BME280;57649;42.968;1.608;2023-04-25T04:00:30;97034.09;;;12.44;100.00
70254;BME280;57649;42.968;1.608;2023-04-25T04:02:56;97022.91;;;12.41;100.00
70254;BME280;57649;42.968;1.608;2023-04-25T04:05:21;97024.00;;;12.46;100.00
70254;BME280;57649;42.968;1.608;2023-04-25T04:07:47;97028.81;;;12.51;100.00
70254;BME280;57649;42.968;1.608;2023-04-25T04:10:12;97016.22;;;12.51;100.00
70254;BME280;57649;42.968;1.608;2023-04-25T04:12:38;97023.44;;;12.36;100.00
70254;BME280;57649;42.968;1.608;2023-04-25T04:15:04;97024.53;;;12.42;100.00
70254;BME280;57649;42.968;1.608;2023-04-25T04:17:33;97012.16;;;12.41;100.00
70254;BME280;57649;42.968;1.608;2023-04-25T04:19:59;97005.38;;;12.45;100.00
70254;BME280;57649;42.968;1.608;2023-04-25T04:22:25;97008.72;;;12.47;100.00
70254;BME280;57649;42.968;1.608;2023-04-25T04:24:50;97007.34;;;12.51;100.00
70254;BME280;57649;42.968;1.608;2023-04-25T04:27:21;97012.63;;;12.44;100.00
70254;BME280;57649;42.968;1.608;2023-04-25T04:29:46;97006.75;;;12.56;100.00
70254;BME280;57649;42.968;1.608;2023-04-25T04:32:13;97002.78;;;12.51;100.00
70254;BME280;57649;42.968;1.608;2023-04-25T04:34:38;97004.69;;;12.58;100.00
70254;BME280;57649;42.968;1.608;2023-04-25T04:37:07;96990.63;;;12.56;100.00
70254;BME280;57649;42.968;1.608;2023-04-25T04:39:33;96997.88;;;12.55;100.00
70254;BME280;57649;42.968;1.608;2023-04-25T04:41:59;97005.72;;;12.57;100.00
70254;BME280;57649;42.968;1.608;2023-04-25T04:44:26;96998.22;;;12.52;100.00
70254;BME280;57649;42.968;1.608;2023-04-25T04:46:52;96995.69;;;12.44;100.00
70254;BME280;57649;42.968;1.608;2023-04-25T04:49:17;96987.31;;;12.54;100.00
70254;BME280;57649;42.968;1.608;2023-04-25T04:51:43;96978.63;;;12.51;100.00
70254;BME280;57649;42.968;1.608;2023-04-25T04:54:12;96998.69;;;12.56;100.00
70254;BME280;57649;42.968;1.608;2023-04-25T04:56:37;96996.50;;;12.44;100.00
70254;BME280;57649;42.968;1.608;2023-04-25T04:59:03;96998.56;;;12.42;100.00
70254;BME280;57649;42.968;1.608;2023-04-25T05:01:28;96999.00;;;12.46;100.00
70254;BME280;57649;42.968;1.608;2023-04-25T05:03:55;97005.84;;;12.48;100.00
70254;BME280;57649;42.968;1.608;2023-04-25T05:06:25;97000.84;;;12.45;100.00
70254;BME280;57649;42.968;1.608;2023-04-25T05:08:51;97004.28;;;12.39;100.00
70254;BME280;57649;42.968;1.608;2023-04-25T05:11:18;97007.69;;;12.48;100.00
70254;BME280;57649;42.968;1.608;2023-04-25T05:13:43;97002.97;;;12.50;100.00
70254;BME280;57649;42.968;1.608;2023-04-25T05:16:08;96998.22;;;12.52;100.00
70254;BME280;57649;42.968;1.608;2023-04-25T05:18:34;97003.28;;;12.62;100.00
70254;BME280;57649;42.968;1.608;2023-04-25T05:21:00;97003.53;;;12.67;100.00
70254;BME280;57649;42.968;1.608;2023-04-25T05:23:25;97009.56;;;12.69;100.00
70254;BME280;57649;42.968;1.608;2023-04-25T05:25:53;97008.72;;;12.68;100.00
70254;BME280;57649;42.968;1.608;2023-04-25T05:28:20;97007.91;;;12.68;100.00
70254;BME280;57649;42.968;1.608;2023-04-25T05:30:46;97014.94;;;12.69;100.00
70254;BME280;57649;42.968;1.608;2023-04-25T05:33:11;97011.22;;;12.70;100.00
70254;BME280;57649;42.968;1.608;2023-04-25T05:35:37;97007.72;;;12.69;100.00
70254;BME280;57649;42.968;1.608;2023-04-25T05:38:02;97020.81;;;12.79;100.00
70254;BME280;57649;42.968;1.608;2023-04-25T05:40:28;97017.19;;;12.87;100.00
70254;BME280;57649;42.968;1.608;2023-04-25T05:42:53;97013.41;;;12.81;100.00
70254;BME280;57649;42.968;1.608;2023-04-25T05:45:18;97011.09;;;12.78;100.00
70254;BME280;57649;42.968;1.608;2023-04-25T05:47:44;97027.91;;;12.87;100.00
70254;BME280;57649;42.968;1.608;2023-04-25T05:50:09;97017.56;;;12.84;100.00
70254;BME280;57649;42.968;1.608;2023-04-25T05:52:35;97026.84;;;13.03;100.00
70254;BME280;57649;42.968;1.608;2023-04-25T05:55:00;97032.16;;;12.96;100.00
70254;BME280;57649;42.968;1.608;2023-04-25T05:57:26;97027.19;;;12.93;100.00
70254;BME280;57649;42.968;1.608;2023-04-25T05:59:53;97029.66;;;12.95;100.00
70254;BME280;57649;42.968;1.608;2023-04-25T06:02:21;97019.22;;;12.85;100.00
70254;BME280;57649;42.968;1.608;2023-04-25T06:04:49;97012.13;;;12.77;100.00
70254;BME280;57649;42.968;1.608;2023-04-25T06:07:14;97028.09;;;12.85;100.00
70254;BME280;57649;42.968;1.608;2023-04-25T06:09:40;97029.41;;;12.89;100.00
70254;BME280;57649;42.968;1.608;2023-04-25T06:12:06;97033.38;;;12.94;100.00
70254;BME280;57649;42.968;1.608;2023-04-25T06:14:33;97036.44;;;12.90;100.00
70254;BME280;57649;42.968;1.608;2023-04-25T06:16:58;97023.25;;;12.96;100.00
70254;BME280;57649;42.968;1.608;2023-04-25T06:19:23;97017.38;;;13.07;100.00
70254;BME280;57649;42.968;1.608;2023-04-25T06:21:49;97022.75;;;13.07;100.00
70254;BME280;57649;42.968;1.608;2023-04-25T06:24:14;97025.34;;;13.00;100.00
70254;BME280;57649;42.968;1.608;2023-04-25T06:26:39;97024.72;;;12.98;100.00
70254;BME280;57649;42.968;1.608;2023-04-25T06:29:05;97025.56;;;12.99;100.00
70254;BME280;57649;42.968;1.608;2023-04-25T06:31:30;97018.19;;;13.07;100.00
70254;BME280;57649;42.968;1.608;2023-04-25T06:33:58;97017.28;;;13.00;100.00
70254;BME280;57649;42.968;1.608;2023-04-25T06:36:23;97012.50;;;13.17;100.00
70254;BME280;57649;42.968;1.608;2023-04-25T06:38:53;97008.94;;;13.32;100.00
70254;BME280;57649;42.968;1.608;2023-04-25T06:41:19;97011.06;;;13.43;100.00
70254;BME280;57649;42.968;1.608;2023-04-25T06:43:45;97006.13;;;13.46;100.00
70254;BME280;57649;42.968;1.608;2023-04-25T06:46:11;96997.47;;;13.51;100.00
70254;BME280;57649;42.968;1.608;2023-04-25T06:48:36;97011.59;;;13.60;100.00
70254;BME280;57649;42.968;1.608;2023-04-25T06:51:02;97013.69;;;13.64;100.00
70254;BME280;57649;42.968;1.608;2023-04-25T06:53:27;96994.00;;;13.57;100.00
70254;BME280;57649;42.968;1.608;2023-04-25T06:55:53;97000.91;;;13.66;100.00
70254;BME280;57649;42.968;1.608;2023-04-25T06:58:18;96991.91;;;13.88;100.00
70254;BME280;57649;42.968;1.608;2023-04-25T07:00:44;96996.97;;;13.69;100.00
70254;BME280;57649;42.968;1.608;2023-04-25T07:03:09;96997.31;;;13.94;100.00
70254;BME280;57649;42.968;1.608;2023-04-25T07:05:35;96998.56;;;13.98;100.00
70254;BME280;57649;42.968;1.608;2023-04-25T07:08:00;97007.28;;;14.00;100.00
70254;BME280;57649;42.968;1.608;2023-04-25T07:10:26;96994.69;;;14.08;100.00
70254;BME280;57649;42.968;1.608;2023-04-25T07:12:51;97007.75;;;14.11;100.00
70254;BME280;57649;42.968;1.608;2023-04-25T07:15:17;97000.31;;;14.19;100.00
70254;BME280;57649;42.968;1.608;2023-04-25T07:17:42;96999.47;;;14.12;100.00
70254;BME280;57649;42.968;1.608;2023-04-25T07:20:08;97002.16;;;14.12;100.00
70254;BME280;57649;42.968;1.608;2023-04-25T07:22:34;97002.81;;;14.21;100.00
70254;BME280;57649;42.968;1.608;2023-04-25T07:25:00;97002.38;;;14.17;100.00
70254;BME280;57649;42.968;1.608;2023-04-25T07:27:26;97008.22;;;14.28;100.00
70254;BME280;57649;42.968;1.608;2023-04-25T07:29:51;97004.69;;;14.20;100.00
70254;BME280;57649;42.968;1.608;2023-04-25T07:32:16;97004.88;;;14.19;100.00
70254;BME280;57649;42.968;1.608;2023-04-25T07:34:42;97005.16;;;14.31;100.00
70254;BME280;57649;42.968;1.608;2023-04-25T07:37:07;97001.16;;;14.20;100.00
70254;BME280;57649;42.968;1.608;2023-04-25T07:39:33;97003.06;;;14.33;100.00
70254;BME280;57649;42.968;1.608;2023-04-25T07:41:58;97014.88;;;14.32;100.00
70254;BME280;57649;42.968;1.608;2023-04-25T07:44:24;97007.41;;;14.34;100.00
70254;BME280;57649;42.968;1.608;2023-04-25T07:46:50;97016.56;;;14.46;100.00
70254;BME280;57649;42.968;1.608;2023-04-25T07:49:15;97016.84;;;14.58;100.00
70254;BME280;57649;42.968;1.608;2023-04-25T07:51:41;97021.81;;;14.54;100.00
70254;BME280;57649;42.968;1.608;2023-04-25T07:54:09;97024.41;;;14.34;100.00
70254;BME280;57649;42.968;1.608;2023-04-25T07:56:34;97022.97;;;14.45;100.00
70254;BME280;57649;42.968;1.608;2023-04-25T07:59:00;97020.69;;;14.35;100.00
70254;BME280;57649;42.968;1.608;2023-04-25T08:01:25;97022.34;;;14.43;100.00
70254;BME280;57649;42.968;1.608;2023-04-25T08:03:52;97025.66;;;14.38;100.00
70254;BME280;57649;42.968;1.608;2023-04-25T08:06:17;97023.59;;;14.40;100.00
70254;BME280;57649;42.968;1.608;2023-04-25T08:08:43;97031.50;;;14.42;100.00
70254;BME280;57649;42.968;1.608;2023-04-25T08:11:08;97048.50;;;14.49;100.00
70254;BME280;57649;42.968;1.608;2023-04-25T08:13:33;97054.19;;;14.26;100.00
70254;BME280;57649;42.968;1.608;2023-04-25T08:15:59;97065.44;;;14.36;100.00
70254;BME280;57649;42.968;1.608;2023-04-25T08:18:24;97065.81;;;14.33;100.00
70254;BME280;57649;42.968;1.608;2023-04-25T08:20:50;97067.66;;;14.26;100.00
70254;BME280;57649;42.968;1.608;2023-04-25T08:23:15;97073.84;;;14.20;100.00
70254;BME280;57649;42.968;1.608;2023-04-25T08:25:41;97079.81;;;14.15;100.00
70254;BME280;57649;42.968;1.608;2023-04-25T08:28:06;97081.94;;;14.20;100.00
70254;BME280;57649;42.968;1.608;2023-04-25T08:30:31;97090.38;;;14.17;100.00
70254;BME280;57649;42.968;1.608;2023-04-25T08:32:57;97100.78;;;14.20;100.00
70254;BME280;57649;42.968;1.608;2023-04-25T08:35:23;97108.22;;;14.24;100.00
70254;BME280;57649;42.968;1.608;2023-04-25T08:37:48;97101.63;;;14.27;100.00
70254;BME280;57649;42.968;1.608;2023-04-25T08:40:15;97113.91;;;14.36;100.00
70254;BME280;57649;42.968;1.608;2023-04-25T08:42:41;97115.13;;;14.34;100.00
70254;BME280;57649;42.968;1.608;2023-04-25T08:45:08;97116.59;;;14.36;100.00
70254;BME280;57649;42.968;1.608;2023-04-25T08:47:34;97124.91;;;14.06;100.00
70254;BME280;57649;42.968;1.608;2023-04-25T08:50:03;97129.31;;;14.14;100.00
70254;BME280;57649;42.968;1.608;2023-04-25T08:52:35;97137.72;;;14.04;100.00
70254;BME280;57649;42.968;1.608;2023-04-25T08:55:01;97142.59;;;14.22;100.00
70254;BME280;57649;42.968;1.608;2023-04-25T08:57:28;97138.41;;;14.13;100.00
70254;BME280;57649;42.968;1.608;2023-04-25T08:59:55;97144.22;;;14.17;100.00
70254;BME280;57649;42.968;1.608;2023-04-25T09:02:22;97154.81;;;14.18;100.00
70254;BME280;57649;42.968;1.608;2023-04-25T09:04:49;97137.66;;;14.26;100.00
70254;BME280;57649;42.968;1.608;2023-04-25T09:07:14;97152.19;;;14.32;100.00
70254;BME280;57649;42.968;1.608;2023-04-25T09:09:43;97145.66;;;14.48;100.00
70254;BME280;57649;42.968;1.608;2023-04-25T09:12:09;97152.94;;;14.54;100.00
70254;BME280;57649;42.968;1.608;2023-04-25T09:14:35;97147.97;;;14.51;100.00
70254;BME280;57649;42.968;1.608;2023-04-25T09:17:03;97146.28;;;14.50;100.00
70254;BME280;57649;42.968;1.608;2023-04-25T09:19:35;97139.06;;;14.57;100.00
70254;BME280;57649;42.968;1.608;2023-04-25T09:22:04;97158.00;;;14.63;100.00
70254;BME280;57649;42.968;1.608;2023-04-25T09:24:43;97150.34;;;14.67;100.00
70254;BME280;57649;42.968;1.608;2023-04-25T09:27:12;97155.91;;;14.59;100.00
70254;BME280;57649;42.968;1.608;2023-04-25T09:29:39;97168.34;;;14.60;100.00
70254;BME280;57649;42.968;1.608;2023-04-25T09:32:24;97155.81;;;14.52;100.00
70254;BME280;57649;42.968;1.608;2023-04-25T09:34:51;97160.38;;;14.52;100.00
70254;BME280;57649;42.968;1.608;2023-04-25T09:37:18;97155.00;;;14.52;100.00
70254;BME280;57649;42.968;1.608;2023-04-25T09:39:45;97163.28;;;14.50;100.00
70254;BME280;57649;42.968;1.608;2023-04-25T09:42:13;97167.53;;;14.66;100.00
70254;BME280;57649;42.968;1.608;2023-04-25T09:44:44;97166.72;;;14.72;100.00
70254;BME280;57649;42.968;1.608;2023-04-25T09:47:11;97163.00;;;14.73;100.00
70254;BME280;57649;42.968;1.608;2023-04-25T09:49:39;97168.78;;;14.70;100.00
70254;BME280;57649;42.968;1.608;2023-04-25T09:52:09;97168.41;;;14.73;100.00
70254;BME280;57649;42.968;1.608;2023-04-25T09:54:38;97160.91;;;14.69;100.00
70254;BME280;57649;42.968;1.608;2023-04-25T09:57:10;97167.00;;;14.91;100.00
70254;BME280;57649;42.968;1.608;2023-04-25T09:59:38;97163.28;;;14.92;100.00
70254;BME280;57649;42.968;1.608;2023-04-25T10:02:06;97170.53;;;14.85;100.00
70254;BME280;57649;42.968;1.608;2023-04-25T10:04:34;97165.59;;;14.95;100.00
70254;BME280;57649;42.968;1.608;2023-04-25T10:07:01;97168.09;;;15.03;100.00
70254;BME280;57649;42.968;1.608;2023-04-25T10:09:28;97170.78;;;15.03;100.00
70254;BME280;57649;42.968;1.608;2023-04-25T10:11:57;97166.25;;;15.10;100.00
70254;BME280;57649;42.968;1.608;2023-04-25T10:14:23;97164.78;;;15.01;100.00
70254;BME280;57649;42.968;1.608;2023-04-25T10:16:49;97168.09;;;15.03;100.00
70254;BME280;57649;42.968;1.608;2023-04-25T10:19:19;97164.41;;;15.17;100.00
70254;BME280;57649;42.968;1.608;2023-04-25T10:22:18;97161.97;;;15.36;100.00
70254;BME280;57649;42.968;1.608;2023-04-25T10:24:46;97157.81;;;15.27;100.00
70254;BME280;57649;42.968;1.608;2023-04-25T10:27:12;97150.09;;;15.24;100.00
70254;BME280;57649;42.968;1.608;2023-04-25T10:29:38;97150.97;;;15.37;100.00
70254;BME280;57649;42.968;1.608;2023-04-25T10:32:04;97147.22;;;15.18;100.00
70254;BME280;57649;42.968;1.608;2023-04-25T10:34:43;97148.69;;;15.28;100.00
70254;BME280;57649;42.968;1.608;2023-04-25T10:37:12;97147.84;;;15.27;100.00
70254;BME280;57649;42.968;1.608;2023-04-25T10:39:39;97138.53;;;15.30;100.00
70254;BME280;57649;42.968;1.608;2023-04-25T10:42:05;97140.34;;;15.16;100.00
70254;BME280;57649;42.968;1.608;2023-04-25T10:44:33;97137.44;;;15.17;100.00
70254;BME280;57649;42.968;1.608;2023-04-25T10:47:02;97146.38;;;15.25;100.00
70254;BME280;57649;42.968;1.608;2023-04-25T10:49:34;97143.06;;;15.23;100.00
70254;BME280;57649;42.968;1.608;2023-04-25T10:55:02;97123.81;;;15.39;100.00
70254;BME280;57649;42.968;1.608;2023-04-25T11:02:31;97129.22;;;15.66;100.00
70254;BME280;57649;42.968;1.608;2023-04-25T11:04:57;97123.00;;;15.72;100.00
70254;BME280;57649;42.968;1.608;2023-04-25T11:10:05;97110.53;;;16.04;100.00
70254;BME280;57649;42.968;1.608;2023-04-25T11:12:31;97112.22;;;16.12;100.00
70254;BME280;57649;42.968;1.608;2023-04-25T11:15:01;97113.19;;;16.38;100.00
70254;BME280;57649;42.968;1.608;2023-04-25T11:17:30;97114.50;;;16.02;100.00
70254;BME280;57649;42.968;1.608;2023-04-25T11:19:55;97116.13;;;16.09;100.00
70254;BME280;57649;42.968;1.608;2023-04-25T11:22:22;97113.88;;;16.00;100.00
70254;BME280;57649;42.968;1.608;2023-04-25T11:24:48;97114.47;;;16.15;100.00
70254;BME280;57649;42.968;1.608;2023-04-25T11:27:14;97109.91;;;16.09;100.00
70254;BME280;57649;42.968;1.608;2023-04-25T11:29:40;97111.97;;;16.20;100.00
70254;BME280;57649;42.968;1.608;2023-04-25T11:32:06;97108.84;;;16.23;100.00
70254;BME280;57649;42.968;1.608;2023-04-25T11:34:32;97107.59;;;16.19;100.00
70254;BME280;57649;42.968;1.608;2023-04-25T11:36:59;97099.50;;;16.26;100.00
70254;BME280;57649;42.968;1.608;2023-04-25T11:39:25;97106.72;;;16.45;100.00
70254;BME280;57649;42.968;1.608;2023-04-25T11:41:52;97086.53;;;16.54;100.00
70254;BME280;57649;42.968;1.608;2023-04-25T11:44:18;97085.59;;;16.74;100.00
70254;BME280;57649;42.968;1.608;2023-04-25T11:46:45;97080.44;;;16.72;100.00
70254;BME280;57649;42.968;1.608;2023-04-25T11:49:10;97087.25;;;16.82;100.00
70254;BME280;57649;42.968;1.608;2023-04-25T11:51:43;97083.34;;;16.64;100.00
70254;BME280;57649;42.968;1.608;2023-04-25T11:54:09;97088.94;;;16.76;100.00
70254;BME280;57649;42.968;1.608;2023-04-25T11:56:34;97075.81;;;16.80;100.00
70254;BME280;57649;42.968;1.608;2023-04-25T11:59:02;97079.69;;;16.97;100.00
70254;BME280;57649;42.968;1.608;2023-04-25T12:01:37;97078.19;;;17.01;100.00
70254;BME280;57649;42.968;1.608;2023-04-25T12:04:13;97071.56;;;16.97;100.00
70254;BME280;57649;42.968;1.608;2023-04-25T12:06:39;97061.19;;;16.94;100.00
70254;BME280;57649;42.968;1.608;2023-04-25T12:09:08;97063.97;;;17.12;100.00
70254;BME280;57649;42.968;1.608;2023-04-25T12:11:43;97061.41;;;17.24;100.00
70254;BME280;57649;42.968;1.608;2023-04-25T12:14:10;97058.88;;;17.55;100.00
70254;BME280;57649;42.968;1.608;2023-04-25T12:19:07;97057.94;;;17.17;100.00
70254;BME280;57649;42.968;1.608;2023-04-25T12:21:33;97045.84;;;17.20;100.00
70254;BME280;57649;42.968;1.608;2023-04-25T12:24:13;97054.84;;;17.13;100.00
70254;BME280;57649;42.968;1.608;2023-04-25T12:26:49;97053.53;;;17.23;100.00
70254;BME280;57649;42.968;1.608;2023-04-25T12:29:19;97043.06;;;17.33;100.00
70254;BME280;57649;42.968;1.608;2023-04-25T12:31:45;97050.78;;;17.29;100.00
70254;BME280;57649;42.968;1.608;2023-04-25T12:34:10;97057.34;;;17.08;100.00
70254;BME280;57649;42.968;1.608;2023-04-25T12:36:36;97057.09;;;16.85;100.00
70254;BME280;57649;42.968;1.608;2023-04-25T12:39:02;97052.34;;;16.73;100.00
70254;BME280;57649;42.968;1.608;2023-04-25T12:41:30;97062.03;;;16.43;100.00
70254;BME280;57649;42.968;1.608;2023-04-25T12:43:55;97059.78;;;16.40;100.00
70254;BME280;57649;42.968;1.608;2023-04-25T12:46:20;97063.44;;;16.52;100.00
70254;BME280;57649;42.968;1.608;2023-04-25T12:48:46;97062.44;;;16.46;100.00
70254;BME280;57649;42.968;1.608;2023-04-25T12:51:11;97069.50;;;16.54;100.00
70254;BME280;57649;42.968;1.608;2023-04-25T12:53:37;97057.84;;;16.53;100.00
70254;BME280;57649;42.968;1.608;2023-04-25T12:56:04;97072.19;;;16.54;100.00
70254;BME280;57649;42.968;1.608;2023-04-25T12:58:29;97066.78;;;16.54;100.00
70254;BME280;57649;42.968;1.608;2023-04-25T13:00:55;97073.13;;;16.73;100.00